Time;durP1;ratioP1;P1;durP2;ratioP2;P2;SDS_P1;SDS_P2;PMS_P1;PMS_P2;Temp;Humidity;BMP_temperature;BMP_pressure;BME280_temperature;BME280_humidity;BME280_pressure;Samples;Min_cycle;Max_cycle;Signal;HPM_P1;HPM_P2
2022/07/15 00:00:42;;;;;;;8.10;3.67;;;17.00;82.80;;;;;;5113678;28;20115;-64
2022/07/15 00:03:08;;;;;;;8.88;3.85;;;16.90;83.50;;;;;;5112880;28;20061;-64
2022/07/15 00:05:33;;;;;;;9.00;3.63;;;16.70;84.10;;;;;;5119232;28;20321;-65
2022/07/15 00:08:00;;;;;;;9.40;3.53;;;16.60;84.40;;;;;;5112694;28;20024;-64
2022/07/15 00:10:27;;;;;;;9.00;3.78;;;16.50;84.60;;;;;;5115937;28;20427;-66
2022/07/15 00:12:56;;;;;;;9.15;3.47;;;16.40;85.00;;;;;;5119156;28;20020;-65
2022/07/15 00:15:25;;;;;;;7.05;3.45;;;16.30;85.40;;;;;;5106269;28;20032;-64
2022/07/15 00:17:52;;;;;;;7.93;3.90;;;16.30;85.60;;;;;;5111967;28;20070;-65
2022/07/15 00:20:20;;;;;;;7.78;3.30;;;16.20;85.80;;;;;;5112409;28;20020;-65
2022/07/15 00:22:46;;;;;;;9.80;3.58;;;16.10;86.00;;;;;;5114416;28;20027;-65
2022/07/15 00:25:13;;;;;;;6.65;3.58;;;16.00;86.40;;;;;;5117402;27;20024;-64
2022/07/15 00:27:56;;;;;;;9.75;3.65;;;15.90;86.80;;;;;;5110351;27;20015;-65
2022/07/15 00:30:22;;;;;;;7.53;3.60;;;15.90;86.80;;;;;;5117514;27;20028;-65
2022/07/15 00:32:49;;;;;;;6.22;3.50;;;15.80;87.20;;;;;;5116773;27;20055;-64
2022/07/15 00:35:14;;;;;;;9.07;4.00;;;15.80;87.10;;;;;;5121272;27;20080;-65
2022/07/15 00:37:40;;;;;;;6.95;3.60;;;15.60;87.70;;;;;;5112256;27;20032;-65
2022/07/15 00:40:06;;;;;;;7.15;3.53;;;15.50;89.20;;;;;;5108747;28;20032;-64
2022/07/15 00:42:44;;;;;;;11.38;3.50;;;15.40;89.00;;;;;;5103933;28;20088;-65
2022/07/15 00:45:15;;;;;;;8.07;3.30;;;15.40;88.20;;;;;;5115896;27;20027;-65
2022/07/15 00:47:51;;;;;;;7.40;3.38;;;15.40;88.20;;;;;;5108655;27;20093;-64
2022/07/15 00:50:18;;;;;;;9.32;3.85;;;15.40;88.00;;;;;;5112023;28;20119;-65
2022/07/15 00:52:56;;;;;;;8.63;3.85;;;15.40;87.90;;;;;;5111866;28;20105;-65
2022/07/15 00:55:23;;;;;;;7.72;3.45;;;15.30;88.30;;;;;;5108184;27;20027;-65
2022/07/15 00:57:58;;;;;;;7.10;3.67;;;15.30;88.00;;;;;;5115536;28;20506;-65
2022/07/15 01:00:24;;;;;;;6.47;3.40;;;15.30;87.90;;;;;;5117419;27;20023;-64
2022/07/15 01:02:52;;;;;;;7.22;3.25;;;15.30;86.90;;;;;;5112485;28;20023;-64
2022/07/15 01:05:19;;;;;;;10.18;4.22;;;15.30;87.30;;;;;;5118090;27;20040;-65
2022/07/15 01:07:45;;;;;;;7.28;3.13;;;15.30;87.20;;;;;;5113018;27;20046;-64
2022/07/15 01:10:11;;;;;;;7.32;3.25;;;15.20;87.40;;;;;;5115183;27;20431;-64
2022/07/15 01:12:38;;;;;;;7.13;3.28;;;15.10;87.30;;;;;;5114546;27;20107;-64
2022/07/15 01:15:05;;;;;;;6.55;3.08;;;15.20;86.90;;;;;;5115337;28;20084;-63
2022/07/15 01:17:31;;;;;;;6.93;3.17;;;15.10;87.00;;;;;;5112186;28;20065;-64
2022/07/15 01:19:57;;;;;;;6.75;3.58;;;15.10;86.80;;;;;;5112832;27;20055;-65
2022/07/15 01:22:23;;;;;;;9.05;3.47;;;15.10;86.60;;;;;;5117284;27;20059;-65
2022/07/15 01:24:52;;;;;;;6.55;3.30;;;15.00;87.30;;;;;;5114099;27;20066;-65
2022/07/15 01:27:19;;;;;;;7.38;2.70;;;14.80;88.30;;;;;;5108709;27;20039;-65
2022/07/15 01:29:44;;;;;;;8.52;3.50;;;14.70;88.70;;;;;;5113991;27;20421;-65
2022/07/15 01:32:11;;;;;;;7.78;3.72;;;14.60;89.00;;;;;;5114210;27;20027;-65
2022/07/15 01:34:37;;;;;;;8.07;4.45;;;14.50;89.50;;;;;;5113726;27;20015;-65
2022/07/15 01:37:02;;;;;;;7.82;3.70;;;14.40;89.80;;;;;;5106551;27;20028;-64
2022/07/15 01:39:28;;;;;;;8.70;3.72;;;14.40;88.80;;;;;;5108906;27;20028;-64
2022/07/15 01:41:54;;;;;;;8.75;3.97;;;14.30;89.70;;;;;;5115006;27;20442;-64
2022/07/15 01:44:19;;;;;;;8.40;3.13;;;14.30;90.00;;;;;;5112303;27;20030;-65
2022/07/15 01:46:45;;;;;;;8.82;4.30;;;14.40;89.90;;;;;;5103929;27;20146;-64
2022/07/15 01:49:25;;;;;;;6.70;3.60;;;14.40;89.90;;;;;;5113445;27;20039;-65
2022/07/15 01:51:55;;;;;;;10.10;4.03;;;14.40;89.80;;;;;;5110202;27;20383;-65
2022/07/15 01:54:23;;;;;;;7.57;3.75;;;14.40;89.50;;;;;;5111431;27;20028;-65
2022/07/15 01:56:56;;;;;;;8.48;4.00;;;14.40;89.70;;;;;;5111034;27;20042;-64
2022/07/15 01:59:23;;;;;;;7.78;3.78;;;14.40;89.90;;;;;;5113263;27;20159;-64
2022/07/15 02:01:51;;;;;;;6.18;3.60;;;14.30;89.60;;;;;;5113462;27;20043;-64
2022/07/15 02:04:17;;;;;;;6.80;3.67;;;14.20;90.10;;;;;;5103702;27;20015;-65
2022/07/15 02:06:43;;;;;;;6.70;3.50;;;14.20;90.30;;;;;;5107979;27;20117;-64
2022/07/15 02:09:10;;;;;;;10.40;4.25;;;14.10;90.20;;;;;;5113833;27;20066;-65
2022/07/15 02:11:35;;;;;;;7.45;3.97;;;14.00;91.00;;;;;;5107865;28;20035;-65
2022/07/15 02:14:02;;;;;;;8.48;4.18;;;13.90;91.10;;;;;;5108144;28;20085;-64
2022/07/15 02:16:29;;;;;;;10.55;4.63;;;13.90;91.30;;;;;;5110886;28;20024;-66
2022/07/15 02:18:55;;;;;;;7.38;3.70;;;13.80;91.40;;;;;;5107958;27;20019;-65
2022/07/15 02:21:21;;;;;;;10.45;3.95;;;13.80;91.30;;;;;;5113759;27;20038;-64
2022/07/15 02:23:47;;;;;;;7.20;3.80;;;13.70;91.20;;;;;;5117264;27;20032;-64
2022/07/15 02:26:13;;;;;;;7.13;3.50;;;13.70;91.20;;;;;;5113643;28;20076;-65
2022/07/15 02:28:39;;;;;;;7.88;3.45;;;13.70;91.10;;;;;;5118464;27;20413;-65
2022/07/15 02:31:05;;;;;;;7.05;3.40;;;13.70;91.20;;;;;;5112103;27;20050;-64
2022/07/15 02:33:34;;;;;;;9.10;4.03;;;13.70;91.00;;;;;;5110450;27;20074;-65
2022/07/15 02:35:59;;;;;;;8.98;3.60;;;13.70;90.80;;;;;;5114543;27;20048;-64
2022/07/15 02:38:25;;;;;;;8.98;3.60;;;13.60;91.10;;;;;;5110239;27;20436;-65
2022/07/15 02:40:51;;;;;;;8.60;3.70;;;13.50;91.30;;;;;;5111555;27;20112;-65
2022/07/15 02:43:17;;;;;;;7.65;4.05;;;13.40;92.30;;;;;;5107067;27;20016;-65
2022/07/15 02:45:43;;;;;;;8.45;3.95;;;13.20;92.80;;;;;;5112686;27;20043;-64
2022/07/15 02:48:09;;;;;;;9.45;4.53;;;13.20;92.90;;;;;;5114654;27;20019;-65
2022/07/15 02:50:35;;;;;;;7.00;3.55;;;13.20;92.90;;;;;;5113718;27;20031;-64
2022/07/15 02:53:03;;;;;;;7.95;3.70;;;13.20;92.80;;;;;;5107695;27;20023;-65
2022/07/15 02:55:28;;;;;;;10.43;3.97;;;13.20;92.70;;;;;;5113265;27;20091;-65
2022/07/15 02:57:54;;;;;;;7.22;3.85;;;13.20;92.70;;;;;;5103577;27;20095;-64
2022/07/15 03:00:20;;;;;;;7.57;3.92;;;13.10;92.90;;;;;;5114402;27;20023;-65
2022/07/15 03:02:47;;;;;;;7.65;3.70;;;13.10;92.90;;;;;;5111636;27;20023;-64
2022/07/15 03:05:14;;;;;;;7.80;3.88;;;13.10;93.10;;;;;;5109500;28;20065;-64
2022/07/15 03:07:40;;;;;;;9.23;4.13;;;13.00;93.00;;;;;;5115019;27;20023;-64
2022/07/15 03:10:07;;;;;;;8.70;4.13;;;13.00;93.10;;;;;;5111794;28;20466;-65
2022/07/15 03:12:33;;;;;;;8.45;4.55;;;13.00;93.00;;;;;;5114455;27;20472;-65
2022/07/15 03:15:02;;;;;;;8.82;3.85;;;13.00;92.80;;;;;;5111266;27;20125;-64
2022/07/15 03:17:28;;;;;;;10.85;3.95;;;13.00;92.80;;;;;;5108634;27;20107;-64
2022/07/15 03:19:55;;;;;;;8.70;3.75;;;13.00;92.90;;;;;;5116524;27;20126;-64
2022/07/15 03:22:22;;;;;;;8.43;4.43;;;13.00;93.00;;;;;;5111109;27;20116;-64
2022/07/15 03:24:48;;;;;;;10.07;4.63;;;12.90;93.20;;;;;;5109713;27;20028;-64
2022/07/15 03:27:15;;;;;;;10.15;4.10;;;12.90;93.40;;;;;;5109168;27;20031;-64
2022/07/15 03:29:41;;;;;;;7.85;4.47;;;12.80;93.60;;;;;;5109055;28;20027;-64
2022/07/15 03:32:09;;;;;;;9.88;4.40;;;12.80;93.60;;;;;;5112378;28;20022;-64
2022/07/15 03:34:38;;;;;;;8.85;3.90;;;12.70;93.80;;;;;;5114968;27;20054;-64
2022/07/15 03:37:04;;;;;;;7.68;3.97;;;12.70;93.80;;;;;;5115821;27;20048;-64
2022/07/15 03:39:32;;;;;;;7.80;4.18;;;12.70;93.70;;;;;;5110244;28;20051;-64
2022/07/15 03:41:58;;;;;;;9.15;3.97;;;12.70;93.60;;;;;;5112519;28;20028;-64
2022/07/15 03:44:26;;;;;;;8.02;3.70;;;12.70;93.70;;;;;;5112627;28;20106;-65
2022/07/15 03:46:52;;;;;;;6.13;3.90;;;12.70;93.80;;;;;;5103437;28;20081;-64
2022/07/15 03:49:21;;;;;;;7.88;3.88;;;12.60;94.00;;;;;;5115810;28;20358;-64
2022/07/15 03:51:49;;;;;;;9.70;3.75;;;12.60;94.20;;;;;;5113952;28;20016;-64
2022/07/15 03:54:15;;;;;;;7.65;3.80;;;12.50;94.50;;;;;;5108603;28;20027;-64
2022/07/15 03:56:41;;;;;;;7.00;4.07;;;12.40;94.60;;;;;;5112153;28;20027;-64
2022/07/15 03:59:10;;;;;;;8.50;3.63;;;12.40;94.60;;;;;;5124070;27;20345;-65
2022/07/15 04:01:35;;;;;;;7.75;3.83;;;12.30;94.90;;;;;;5115712;27;20031;-65
2022/07/15 04:04:01;;;;;;;8.23;4.32;;;12.30;95.10;;;;;;5119940;27;20027;-63
2022/07/15 04:06:26;;;;;;;7.57;3.97;;;12.30;95.00;;;;;;5117461;27;20529;-63
2022/07/15 04:08:52;;;;;;;6.15;3.83;;;12.30;95.00;;;;;;5114543;27;20035;-63
2022/07/15 04:11:18;;;;;;;7.07;3.75;;;12.30;95.00;;;;;;5115841;27;20035;-63
2022/07/15 04:13:44;;;;;;;10.00;3.70;;;12.20;95.20;;;;;;5117689;27;20152;-63
2022/07/15 04:16:13;;;;;;;8.13;3.92;;;12.20;95.40;;;;;;5116624;27;20027;-65
2022/07/15 04:18:39;;;;;;;8.00;4.22;;;12.30;95.40;;;;;;5111509;27;20023;-64
2022/07/15 04:21:05;;;;;;;12.32;4.38;;;12.40;94.90;;;;;;5116771;27;20154;-65
2022/07/15 04:23:31;;;;;;;8.13;4.28;;;12.50;94.50;;;;;;5111681;27;20358;-66
2022/07/15 04:25:56;;;;;;;9.45;3.70;;;12.60;93.90;;;;;;5113316;27;20464;-65
2022/07/15 04:28:25;;;;;;;7.57;3.72;;;12.60;93.70;;;;;;5114235;28;20019;-65
2022/07/15 04:30:52;;;;;;;7.97;3.80;;;12.70;93.70;;;;;;5116600;27;20046;-65
2022/07/15 04:33:17;;;;;;;9.95;3.78;;;12.70;93.50;;;;;;5118155;27;20309;-64
2022/07/15 04:35:43;;;;;;;6.70;3.45;;;12.80;93.20;;;;;;5110356;27;20026;-64
2022/07/15 04:38:10;;;;;;;9.95;3.70;;;12.90;93.20;;;;;;5113997;27;20019;-65
2022/07/15 04:40:36;;;;;;;8.38;3.58;;;12.90;93.20;;;;;;5110009;27;20032;-64
2022/07/15 04:43:03;;;;;;;7.75;3.30;;;13.00;93.10;;;;;;5116548;27;20323;-64
2022/07/15 04:45:29;;;;;;;7.78;3.40;;;13.00;93.00;;;;;;5109970;27;20119;-64
2022/07/15 04:47:54;;;;;;;5.60;3.08;;;13.00;93.20;;;;;;5115484;27;20114;-63
2022/07/15 04:53:06;;;;;;;6.35;3.42;;;12.90;94.30;;;;;;5106654;27;20337;-64
2022/07/15 04:55:32;;;;;;;9.32;4.10;;;12.80;94.80;;;;;;5104978;27;20429;-64
2022/07/15 04:57:57;;;;;;;9.38;3.50;;;12.80;94.90;;;;;;5114535;27;20020;-64
2022/07/15 05:00:25;;;;;;;6.97;3.38;;;12.80;94.60;;;;;;5107655;27;20036;-64
2022/07/15 05:02:51;;;;;;;6.97;3.28;;;12.90;93.70;;;;;;5112324;27;20043;-64
2022/07/15 05:05:18;;;;;;;9.57;3.08;;;13.10;92.90;;;;;;5106780;27;20027;-63
2022/07/15 05:07:45;;;;;;;8.18;2.92;;;13.30;92.50;;;;;;5115210;27;20027;-64
2022/07/15 05:10:11;;;;;;;8.98;4.10;;;13.40;91.30;;;;;;5113761;27;20032;-64
2022/07/15 05:12:38;;;;;;;9.70;4.55;;;13.50;92.60;;;;;;5115343;27;20294;-65
2022/07/15 05:15:04;;;;;;;6.95;3.90;;;13.40;93.40;;;;;;5114363;27;20023;-64
2022/07/15 05:17:30;;;;;;;9.02;3.20;;;13.30;93.90;;;;;;5114726;27;20026;-64
2022/07/15 05:19:56;;;;;;;10.48;3.15;;;13.20;93.90;;;;;;5125143;27;20339;-64
2022/07/15 05:22:22;;;;;;;5.82;3.10;;;13.30;93.70;;;;;;5115180;28;20040;-64
2022/07/15 05:24:48;;;;;;;6.07;2.80;;;13.40;93.70;;;;;;5116865;28;20370;-64
2022/07/15 05:27:13;;;;;;;7.75;3.22;;;13.50;93.30;;;;;;5113827;27;20035;-65
2022/07/15 05:29:39;;;;;;;8.63;3.17;;;13.70;92.80;;;;;;5119539;27;20034;-64
2022/07/15 05:32:05;;;;;;;10.02;3.63;;;13.90;92.00;;;;;;5114619;27;20026;-65
2022/07/15 05:34:31;;;;;;;9.25;3.28;;;14.10;92.70;;;;;;5116421;27;20015;-64
2022/07/15 05:36:57;;;;;;;11.45;4.05;;;14.20;92.10;;;;;;5112649;27;20316;-64
2022/07/15 05:39:25;;;;;;;4.90;2.70;;;14.30;91.60;;;;;;5115105;27;20020;-64
2022/07/15 05:41:51;;;;;;;7.05;2.50;;;14.60;91.20;;;;;;5112671;27;20031;-64
2022/07/15 05:44:17;;;;;;;8.40;2.67;;;14.80;88.80;;;;;;5116312;27;20069;-64
2022/07/15 05:46:42;;;;;;;7.30;2.47;;;15.20;87.90;;;;;;5111197;28;20112;-64
2022/07/15 05:49:10;;;;;;;7.43;3.08;;;15.50;87.50;;;;;;5114374;27;20036;-64
2022/07/15 05:51:38;;;;;;;8.88;3.00;;;15.90;86.20;;;;;;5106234;27;20428;-64
2022/07/15 05:54:04;;;;;;;7.05;2.50;;;16.20;86.70;;;;;;5115777;27;20020;-65
2022/07/15 05:56:30;;;;;;;9.38;3.03;;;16.40;86.70;;;;;;5114269;27;20024;-64
2022/07/15 05:58:56;;;;;;;5.47;2.42;;;16.50;86.20;;;;;;5116912;27;20028;-65
2022/07/15 06:01:23;;;;;;;6.57;2.50;;;16.70;85.90;;;;;;5119337;27;20027;-64
2022/07/15 06:03:49;;;;;;;7.72;2.83;;;17.00;85.40;;;;;;5114781;27;20073;-65
2022/07/15 06:06:16;;;;;;;6.80;2.58;;;17.30;84.90;;;;;;5116849;27;20032;-65
2022/07/15 06:08:42;;;;;;;4.75;2.40;;;17.60;83.00;;;;;;5116435;27;20032;-64
2022/07/15 06:11:08;;;;;;;6.25;2.30;;;17.60;82.60;;;;;;5117881;27;20071;-65
2022/07/15 06:13:34;;;;;;;10.00;2.40;;;17.70;82.30;;;;;;5110294;27;20027;-65
2022/07/15 06:16:00;;;;;;;6.30;2.10;;;17.70;80.70;;;;;;5121731;27;20020;-64
2022/07/15 06:18:25;;;;;;;7.45;2.30;;;17.70;79.20;;;;;;5117758;28;20313;-64
2022/07/15 06:20:52;;;;;;;7.25;2.30;;;17.80;79.00;;;;;;5116430;28;20031;-64
2022/07/15 06:23:18;;;;;;;5.95;2.17;;;18.00;75.00;;;;;;5116763;27;20019;-65
2022/07/15 06:25:44;;;;;;;7.53;2.53;;;18.10;76.00;;;;;;5112637;27;20980;-64
2022/07/15 06:28:10;;;;;;;6.25;2.45;;;18.20;75.60;;;;;;5117926;27;20447;-64
2022/07/15 06:30:36;;;;;;;8.88;3.00;;;18.30;74.90;;;;;;5115225;27;20097;-64
2022/07/15 06:33:02;;;;;;;6.25;2.50;;;18.40;75.10;;;;;;5117827;27;20020;-65
2022/07/15 06:35:28;;;;;;;6.40;2.67;;;18.50;75.70;;;;;;5112151;27;20062;-64
2022/07/15 06:37:54;;;;;;;6.57;2.65;;;18.50;75.50;;;;;;5113411;27;20024;-63
2022/07/15 06:40:20;;;;;;;6.15;2.83;;;18.70;73.60;;;;;;5115174;27;20019;-64
2022/07/15 06:42:46;;;;;;;6.55;2.63;;;18.80;74.50;;;;;;5109717;27;20409;-64
2022/07/15 06:45:15;;;;;;;7.82;2.58;;;18.90;73.10;;;;;;5113848;27;20361;-63
2022/07/15 06:47:41;;;;;;;6.22;2.70;;;19.00;73.20;;;;;;5115261;27;20062;-64
2022/07/15 06:50:08;;;;;;;5.32;2.63;;;19.10;73.90;;;;;;5113352;27;20333;-64
2022/07/15 06:52:36;;;;;;;5.32;2.42;;;19.10;73.00;;;;;;5110436;27;20370;-64
2022/07/15 06:55:03;;;;;;;7.50;2.90;;;19.00;74.60;;;;;;5110571;27;20031;-63
2022/07/15 06:57:29;;;;;;;4.97;2.53;;;19.10;74.40;;;;;;5114566;28;20028;-63
2022/07/15 06:59:56;;;;;;;8.38;2.90;;;19.30;76.10;;;;;;5117902;27;20308;-63
2022/07/15 07:02:22;;;;;;;7.30;2.75;;;19.40;75.10;;;;;;5124113;27;20028;-63
2022/07/15 07:04:48;;;;;;;5.82;2.55;;;19.40;75.30;;;;;;5110553;27;20047;-63
2022/07/15 07:07:13;;;;;;;8.95;3.10;;;19.30;75.60;;;;;;5116555;27;20030;-63
2022/07/15 07:09:39;;;;;;;7.97;2.65;;;19.20;76.20;;;;;;5114043;27;20042;-66
2022/07/15 07:12:05;;;;;;;5.70;2.50;;;19.30;75.90;;;;;;5113581;27;20568;-67
2022/07/15 07:14:31;;;;;;;5.55;2.85;;;19.40;75.70;;;;;;5112282;27;20023;-64
2022/07/15 07:16:57;;;;;;;9.27;2.60;;;19.50;76.10;;;;;;5113739;27;20080;-65
2022/07/15 07:19:22;;;;;;;5.43;2.60;;;19.40;76.10;;;;;;5116216;27;20038;-64
2022/07/15 07:21:48;;;;;;;5.47;2.53;;;19.40;76.40;;;;;;5113304;28;20038;-64
2022/07/15 07:24:14;;;;;;;6.88;2.92;;;19.50;76.70;;;;;;5117424;27;20027;-64
2022/07/15 07:26:40;;;;;;;8.40;3.25;;;19.60;74.70;;;;;;5112716;28;20102;-64
2022/07/15 07:29:06;;;;;;;7.68;3.08;;;19.50;75.10;;;;;;5113676;27;20161;-65
2022/07/15 07:31:31;;;;;;;7.07;2.65;;;19.70;75.80;;;;;;5111718;27;20024;-64
2022/07/15 07:33:58;;;;;;;5.55;2.05;;;20.10;75.80;;;;;;5111240;28;20313;-64
2022/07/15 07:36:27;;;;;;;8.45;2.75;;;20.90;73.30;;;;;;5110854;27;20047;-64
2022/07/15 07:38:53;;;;;;;7.93;2.90;;;22.20;69.70;;;;;;5114127;27;20036;-64
2022/07/15 07:41:18;;;;;;;7.05;2.70;;;23.30;67.70;;;;;;5111848;28;20116;-64
2022/07/15 07:43:45;;;;;;;7.35;2.90;;;23.90;66.00;;;;;;5115414;28;20414;-63
2022/07/15 07:46:12;;;;;;;9.15;3.20;;;24.40;66.20;;;;;;5113723;28;20044;-65
2022/07/15 07:48:39;;;;;;;7.88;2.78;;;24.80;64.40;;;;;;5114357;28;20034;-64
2022/07/15 07:51:05;;;;;;;6.72;2.63;;;24.70;64.00;;;;;;5114071;28;20314;-65
2022/07/15 07:53:30;;;;;;;7.63;2.55;;;24.60;64.70;;;;;;5108222;28;20023;-64
2022/07/15 07:55:56;;;;;;;8.73;2.80;;;24.90;64.80;;;;;;5111430;28;20034;-64
2022/07/15 07:58:22;;;;;;;7.45;2.33;;;25.40;63.20;;;;;;5113633;28;20424;-65
2022/07/15 08:00:48;;;;;;;5.95;2.60;;;25.50;63.00;;;;;;5118993;28;20052;-64
2022/07/15 08:03:15;;;;;;;5.32;2.75;;;25.80;62.00;;;;;;5113932;27;20463;-64
2022/07/15 08:05:41;;;;;;;10.05;6.82;;;25.90;61.80;;;;;;5114859;28;20111;-65
2022/07/15 08:08:15;;;;;;;12.50;6.07;;;26.00;61.20;;;;;;5114778;28;20110;-65
2022/07/15 08:10:43;;;;;;;8.65;3.85;;;26.30;59.80;;;;;;5113451;28;20108;-64
2022/07/15 08:13:09;;;;;;;5.90;2.55;;;26.30;59.80;;;;;;5112771;28;20433;-65
2022/07/15 08:15:35;;;;;;;5.70;2.47;;;25.90;58.90;;;;;;5115361;28;20027;-65
2022/07/15 08:18:03;;;;;;;6.82;2.58;;;26.50;58.50;;;;;;5116064;28;20340;-65
2022/07/15 08:20:36;;;;;;;6.47;2.33;;;27.00;58.00;;;;;;5116299;27;20409;-65
2022/07/15 08:23:02;;;;;;;6.20;2.40;;;26.80;56.60;;;;;;5110903;28;20042;-64
2022/07/15 08:25:38;;;;;;;5.93;2.50;;;26.30;58.00;;;;;;5115208;28;20321;-65
2022/07/15 08:28:06;;;;;;;7.38;2.67;;;26.50;57.60;;;;;;5114066;28;20434;-64
2022/07/15 08:30:34;;;;;;;7.05;2.42;;;26.20;58.30;;;;;;5115515;27;20032;-64
2022/07/15 08:33:00;;;;;;;7.35;2.53;;;26.80;56.60;;;;;;5117478;28;20020;-65
2022/07/15 08:35:27;;;;;;;5.65;2.50;;;26.60;56.40;;;;;;5124046;28;20027;-65
2022/07/15 08:37:53;;;;;;;7.18;2.58;;;26.90;56.60;;;;;;5115563;28;20059;-65
2022/07/15 08:40:19;;;;;;;7.72;2.42;;;26.70;56.60;;;;;;5113217;28;20088;-64
2022/07/15 08:42:47;;;;;;;4.60;2.13;;;27.00;57.00;;;;;;5113536;28;20408;-65
2022/07/15 08:45:16;;;;;;;5.95;2.38;;;26.90;56.20;;;;;;5114902;28;20427;-65
2022/07/15 08:47:43;;;;;;;6.57;2.03;;;27.50;55.70;;;;;;5117347;27;20207;-65
2022/07/15 08:50:11;;;;;;;8.02;2.50;;;27.80;54.00;;;;;;5119226;27;20122;-65
2022/07/15 08:52:38;;;;;;;7.82;2.60;;;27.80;54.80;;;;;;5115169;27;20020;-65
2022/07/15 08:55:04;;;;;;;5.28;2.42;;;28.10;54.90;;;;;;5118198;27;20030;-65
2022/07/15 08:57:30;;;;;;;7.60;2.75;;;28.60;53.90;;;;;;5118128;27;20050;-65
2022/07/15 08:59:55;;;;;;;6.80;2.55;;;29.10;51.70;;;;;;5116948;27;20036;-65
2022/07/15 09:02:22;;;;;;;5.82;2.30;;;29.10;52.50;;;;;;5118662;27;20035;-65
2022/07/15 09:05:21;;;;;;;5.47;2.30;;;29.00;52.10;;;;;;5116597;27;20024;-65
2022/07/15 09:07:55;;;;;;;7.10;2.40;;;28.60;52.00;;;;;;5106079;27;20039;-64
2022/07/15 09:10:24;;;;;;;5.50;2.42;;;28.30;52.60;;;;;;5109628;27;20023;-65
2022/07/15 09:12:53;;;;;;;6.50;2.15;;;28.60;52.10;;;;;;5116006;27;20039;-65
2022/07/15 09:15:33;;;;;;;7.55;2.05;;;29.30;51.60;;;;;;5118918;27;20027;-64
2022/07/15 09:18:20;;;;;;;7.35;2.45;;;29.80;50.30;;;;;;5107639;28;20023;-65
2022/07/15 09:20:47;;;;;;;6.63;2.40;;;30.00;49.40;;;;;;5121266;27;20030;-65
2022/07/15 09:23:20;;;;;;;7.40;2.05;;;30.50;48.80;;;;;;5113777;27;20491;-65
2022/07/15 09:25:49;;;;;;;6.05;2.30;;;31.20;47.80;;;;;;5098763;27;20039;-65
2022/07/15 09:28:15;;;;;;;6.30;2.47;;;30.60;47.40;;;;;;5113444;27;20035;-65
2022/07/15 09:36:20;;;;;;;6.97;2.63;;;30.50;46.70;;;;;;5115628;28;20368;-65
2022/07/15 09:38:50;;;;;;;5.43;2.70;;;30.30;47.50;;;;;;5116689;28;20276;-65
2022/07/15 09:41:27;;;;;;;5.50;2.53;;;30.30;47.60;;;;;;5115850;28;20472;-65
2022/07/15 09:44:12;;;;;;;5.97;2.58;;;30.00;46.80;;;;;;5116240;28;20444;-65
2022/07/15 09:47:04;;;;;;;6.65;2.78;;;30.40;47.70;;;;;;5114957;27;20043;-65
2022/07/15 09:49:34;;;;;;;5.63;2.42;;;30.80;46.30;;;;;;5111734;27;20458;-64
2022/07/15 09:52:07;;;;;;;6.10;2.10;;;31.00;46.70;;;;;;5114869;28;20051;-64
2022/07/15 09:54:36;;;;;;;5.75;2.65;;;31.20;46.60;;;;;;5115394;28;20506;-64
2022/07/15 09:57:07;;;;;;;7.72;2.55;;;29.70;48.80;;;;;;5111481;28;20038;-64
2022/07/15 09:59:35;;;;;;;6.75;2.63;;;28.90;49.10;;;;;;5114698;28;20027;-64
2022/07/15 10:02:01;;;;;;;5.93;2.30;;;28.70;50.30;;;;;;5116556;28;20020;-64
2022/07/15 10:04:28;;;;;;;6.90;2.60;;;29.30;50.10;;;;;;5115627;28;20028;-66
2022/07/15 10:06:56;;;;;;;6.13;2.30;;;29.20;48.70;;;;;;5115611;28;20027;-63
2022/07/15 10:09:30;;;;;;;6.88;2.60;;;29.10;48.80;;;;;;5114149;28;20036;-63
2022/07/15 10:12:18;;;;;;;7.03;3.05;;;29.20;49.70;;;;;;5033776;28;20618;-63
2022/07/15 10:15:11;;;;;;;6.22;2.85;;;28.80;50.70;;;;;;5115119;28;20019;-63
2022/07/15 10:18:02;;;;;;;8.32;2.80;;;28.50;50.60;;;;;;5114141;28;20107;-64
2022/07/15 10:21:09;;;;;;;5.55;2.63;;;28.60;51.20;;;;;;5113772;28;20034;-63
2022/07/15 10:23:59;;;;;;;7.28;2.30;;;29.30;50.30;;;;;;5109853;28;20024;-64
2022/07/15 10:26:47;;;;;;;7.45;2.30;;;29.70;50.30;;;;;;5111853;28;20035;-65
2022/07/15 10:29:15;;;;;;;8.13;2.90;;;30.40;49.00;;;;;;5115025;28;20023;-64
2022/07/15 10:31:41;;;;;;;6.88;2.67;;;30.40;48.20;;;;;;5113145;28;20043;-64
2022/07/15 10:34:12;;;;;;;8.35;2.40;;;30.20;48.20;;;;;;5113918;28;20024;-65
2022/07/15 10:36:47;;;;;;;8.32;2.72;;;29.50;49.20;;;;;;5115550;28;20026;-64
2022/07/15 10:39:18;;;;;;;5.40;2.30;;;29.00;49.00;;;;;;5114766;28;20107;-65
2022/07/15 10:41:52;;;;;;;6.40;2.58;;;28.90;51.70;;;;;;5113927;28;20031;-64
2022/07/15 10:44:19;;;;;;;6.75;2.40;;;29.00;49.70;;;;;;5113924;28;20026;-64
2022/07/15 10:46:45;;;;;;;6.53;2.90;;;28.90;50.50;;;;;;5112830;28;20040;-65
2022/07/15 10:49:11;;;;;;;5.95;2.55;;;28.70;50.80;;;;;;5111486;28;20035;-64
2022/07/15 10:51:37;;;;;;;5.38;2.50;;;28.40;51.40;;;;;;5113736;28;20038;-64
2022/07/15 10:54:10;;;;;;;7.13;2.85;;;28.00;51.70;;;;;;5115522;28;20015;-65
2022/07/15 10:56:38;;;;;;;7.93;2.65;;;28.50;51.10;;;;;;5113883;27;20028;-65
2022/07/15 10:59:19;;;;;;;5.65;2.65;;;28.70;51.00;;;;;;5114586;28;20324;-64
2022/07/15 11:02:05;;;;;;;8.85;3.10;;;28.60;50.60;;;;;;5114946;28;20019;-66
2022/07/15 11:04:34;;;;;;;6.75;3.20;;;28.50;51.90;;;;;;5101027;28;20047;-64
2022/07/15 11:07:11;;;;;;;5.50;2.70;;;28.40;50.80;;;;;;5113802;28;20027;-65
2022/07/15 11:10:11;;;;;;;6.25;2.67;;;27.70;51.50;;;;;;5110697;28;20055;-66
2022/07/15 11:12:37;;;;;;;8.20;2.80;;;28.30;51.60;;;;;;5127934;27;20031;-65
2022/07/15 11:15:06;;;;;;;7.65;2.80;;;28.60;50.70;;;;;;5113746;27;20464;-65
2022/07/15 11:17:34;;;;;;;5.47;2.70;;;29.20;50.70;;;;;;5113232;28;20024;-65
2022/07/15 11:20:10;;;;;;;6.68;2.53;;;29.40;49.00;;;;;;5111018;28;20314;-65
2022/07/15 11:22:44;;;;;;;8.55;2.92;;;29.00;49.80;;;;;;5115951;28;20023;-65
2022/07/15 11:25:17;;;;;;;7.03;3.28;;;28.60;50.60;;;;;;5112410;28;20040;-65
2022/07/15 11:27:54;;;;;;;8.23;3.30;;;28.40;51.90;;;;;;5116051;28;20066;-65
2022/07/15 11:30:20;;;;;;;4.70;2.50;;;28.80;51.00;;;;;;5107902;28;20028;-65
2022/07/15 11:32:55;;;;;;;7.75;2.60;;;29.70;49.60;;;;;;5113558;28;20028;-65
2022/07/15 11:35:21;;;;;;;9.77;2.58;;;29.40;48.90;;;;;;5114902;28;20504;-65
2022/07/15 11:37:46;;;;;;;5.95;2.83;;;29.20;50.20;;;;;;5115342;28;20024;-65
2022/07/15 11:44:29;;;;;;;5.90;2.33;;;29.00;50.80;;;;;;5108018;28;20036;-65
2022/07/15 11:45:43;;;;;;;7.82;2.75;;;29.70;50.70;;;;;;5114370;28;20163;-65
2022/07/15 11:48:09;;;;;;;7.15;2.80;;;29.20;49.50;;;;;;5115770;28;20031;-65
2022/07/15 11:50:53;;;;;;;6.22;2.70;;;28.50;49.60;;;;;;5116268;28;20032;-66
2022/07/15 11:53:19;;;;;;;6.13;2.85;;;28.40;51.20;;;;;;5110870;28;20047;-65
2022/07/15 11:55:56;;;;;;;7.38;2.55;;;29.00;52.10;;;;;;5113370;28;20072;-65
2022/07/15 11:58:51;;;;;;;5.82;2.30;;;29.10;49.40;;;;;;5112113;28;20030;-65
2022/07/15 12:01:21;;;;;;;7.82;2.47;;;29.10;49.50;;;;;;5111170;28;20036;-65
2022/07/15 12:03:51;;;;;;;7.80;2.47;;;29.50;49.50;;;;;;5115038;28;20081;-65
2022/07/15 12:06:17;;;;;;;7.10;2.67;;;28.70;50.20;;;;;;5116281;28;20028;-65
2022/07/15 12:08:55;;;;;;;6.32;2.75;;;28.50;50.30;;;;;;5114215;28;20026;-65
2022/07/15 12:11:30;;;;;;;6.13;2.58;;;29.00;49.40;;;;;;5111385;28;20032;-65
2022/07/15 12:14:01;;;;;;;6.75;2.40;;;29.00;49.50;;;;;;5114432;28;20119;-65
2022/07/15 12:16:35;;;;;;;6.15;2.40;;;29.00;49.90;;;;;;5113366;28;20084;-65
2022/07/15 12:19:07;;;;;;;7.32;3.05;;;29.10;49.80;;;;;;5114515;28;20077;-65
2022/07/15 12:21:35;;;;;;;5.55;2.60;;;29.30;49.90;;;;;;5116335;28;20065;-65
2022/07/15 12:24:14;;;;;;;6.82;2.53;;;29.60;49.70;;;;;;5117792;28;20820;-64
2022/07/15 12:26:55;;;;;;;6.18;2.50;;;29.90;48.60;;;;;;5114254;28;20321;-65
2022/07/15 12:29:29;;;;;;;5.43;2.60;;;29.80;48.70;;;;;;5121145;27;20027;-65
2022/07/15 12:31:57;;;;;;;5.85;2.60;;;29.80;48.30;;;;;;5116557;27;20026;-66
2022/07/15 12:34:48;;;;;;;6.18;2.13;;;30.10;47.60;;;;;;5118552;27;20026;-65
2022/07/15 12:37:16;;;;;;;6.47;2.60;;;30.60;48.10;;;;;;5106806;27;20324;-64
2022/07/15 12:39:59;;;;;;;8.40;2.85;;;29.50;48.30;;;;;;5115588;28;20367;-66
2022/07/15 12:42:29;;;;;;;9.13;2.70;;;28.60;50.70;;;;;;5115593;28;20030;-66
2022/07/15 12:45:16;;;;;;;6.22;2.45;;;29.00;50.30;;;;;;5117543;28;20034;-65
2022/07/15 12:48:07;;;;;;;6.60;2.85;;;29.20;50.10;;;;;;5116176;28;20055;-65
2022/07/15 12:50:57;;;;;;;8.50;2.08;;;29.10;49.50;;;;;;5112852;28;20412;-64
2022/07/15 12:53:25;;;;;;;6.88;2.80;;;29.40;49.90;;;;;;5106920;28;20047;-64
2022/07/15 12:55:56;;;;;;;5.60;2.30;;;28.70;50.70;;;;;;5118345;28;20022;-64
2022/07/15 12:58:27;;;;;;;8.10;2.40;;;29.00;49.40;;;;;;5117849;28;20063;-64
2022/07/15 13:01:03;;;;;;;5.55;2.35;;;29.50;49.60;;;;;;5118376;28;20039;-66
2022/07/15 13:03:28;;;;;;;5.07;2.30;;;30.10;49.40;;;;;;5118503;28;20261;-66
2022/07/15 13:05:58;;;;;;;4.97;2.25;;;29.70;49.50;;;;;;5118694;28;20027;-65